Time;durP1;ratioP1;P1;durP2;ratioP2;P2;SDS_P1;SDS_P2;PMS_P1;PMS_P2;Temp;Humidity;BMP_temperature;BMP_pressure;BME280_temperature;BME280_humidity;BME280_pressure;Samples;Min_cycle;Max_cycle;Signal;HPM_P1;HPM_P2
2023/01/03 00:00:46;;;;;;;158.63;94.63;;;;;;;;;;4955422;29;20027;-89
2023/01/03 00:03:15;;;;;;;139.23;81.80;;;;;;;;;;4955682;29;20486;-88
2023/01/03 00:05:42;;;;;;;123.80;78.72;;;;;;;;;;4955438;29;20042;-87
2023/01/03 00:08:08;;;;;;;138.75;84.30;;;;;;;;;;4954381;29;20019;-86
2023/01/03 00:10:34;;;;;;;148.23;87.43;;;128.40;2252.80;;;;;;4955640;29;20114;-88
2023/01/03 00:13:00;;;;;;;166.75;96.40;;;;;;;;;;4956352;28;20105;-88
2023/01/03 00:15:26;;;;;;;177.23;99.88;;;;;;;;;;4962910;28;20427;-87
2023/01/03 00:17:54;;;;;;;175.43;102.35;;;128.20;2252.80;;;;;;4957502;28;20466;-88
2023/01/03 00:20:21;;;;;;;158.95;92.63;;;103.30;2227.20;;;;;;4957495;28;20046;-87
2023/01/03 00:22:47;;;;;;;152.55;91.43;;;103.30;2227.20;;;;;;4958643;28;20026;-89
2023/01/03 00:25:13;;;;;;;139.48;83.40;;;103.20;2227.20;;;;;;4958361;28;20031;-87
2023/01/03 00:27:39;;;;;;;131.10;85.18;;;128.10;2252.80;;;;;;4958287;28;20045;-87
2023/01/03 00:30:06;;;;;;;144.27;87.78;;;103.10;2227.20;;;;;;4958555;28;20030;-87
2023/01/03 00:32:32;;;;;;;128.02;76.90;;;103.20;2227.20;;;;;;4957864;28;20648;-86
2023/01/03 00:34:58;;;;;;;124.93;80.50;;;103.30;2227.20;;;;;;4958406;28;20054;-87
2023/01/03 00:37:24;;;;;;;98.05;67.32;;;103.10;2227.20;;;;;;4958345;28;20027;-88
2023/01/03 00:39:50;;;;;;;93.80;59.13;;;;;;;;;;4958166;28;20035;-88
2023/01/03 00:42:16;;;;;;;107.88;68.53;;;;;;;;;;4958223;28;20027;-87
2023/01/03 00:44:42;;;;;;;101.55;60.75;;;;;;;;;;4957805;28;20382;-88
2023/01/03 00:47:08;;;;;;;96.05;59.72;;;;;;;;;;4958146;28;20023;-89
2023/01/03 00:49:35;;;;;;;91.82;60.67;;;;;;;;;;4974037;28;20050;-89
2023/01/03 00:52:01;;;;;;;96.18;58.28;;;;;;;;;;4958063;28;20480;-86
2023/01/03 00:54:28;;;;;;;104.03;61.60;;;;;;;;;;4957693;28;20045;-87
2023/01/03 00:56:54;;;;;;;96.28;57.53;;;;;;;;;;4957855;28;20497;-86
2023/01/03 00:59:21;;;;;;;124.57;73.38;;;;;;;;;;4957730;28;20538;-85
2023/01/03 01:01:59;;;;;;;133.48;80.43;;;;;;;;;;4957832;28;20085;-83
2023/01/03 01:04:27;;;;;;;174.30;99.40;;;;;;;;;;4957854;28;20097;-84
2023/01/03 01:06:56;;;;;;;140.00;81.15;;;;;;;;;;4975016;28;20042;-84
2023/01/03 01:09:28;;;;;;;124.93;76.68;;;;;;;;;;4974782;28;20564;-85
2023/01/03 01:11:57;;;;;;;130.93;78.53;;;;;;;;;;4975247;28;20061;-87
2023/01/03 01:14:25;;;;;;;148.95;86.82;;;;;;;;;;4973842;28;20030;-88
2023/01/03 01:17:04;;;;;;;156.27;93.00;;;;;;;;;;4957545;28;20088;-89
2023/01/03 01:22:16;;;;;;;152.93;96.45;;;;;;;;;;4975107;28;20100;-86
2023/01/03 01:24:42;;;;;;;176.27;104.45;;;;;;;;;;4957468;28;20034;-88
2023/01/03 01:27:08;;;;;;;180.43;105.30;;;128.40;2252.80;;;;;;4958454;28;20109;-85
2023/01/03 01:29:35;;;;;;;166.10;102.35;;;128.20;2252.80;;;;;;4961170;28;20114;-86
2023/01/03 01:32:02;;;;;;;146.90;90.38;;;128.00;2252.80;;;;;;4961694;28;20126;-89
2023/01/03 01:34:29;;;;;;;142.38;83.53;;;128.10;2252.80;;;;;;4961468;28;20022;-86
2023/01/03 01:36:55;;;;;;;158.30;95.10;;;128.00;2252.80;;;;;;4960952;28;20126;-88
2023/01/03 01:39:25;;;;;;;156.52;91.35;;;103.10;2227.20;;;;;;4960917;28;20121;-88
2023/01/03 01:48:09;;;;;;;124.35;76.05;;;103.20;2227.20;;;;;;4978489;28;20037;-87
2023/01/03 01:51:22;;;;;;;118.82;70.07;;;103.10;2227.20;;;;;;4971845;28;20568;-86
2023/01/03 01:54:09;;;;;;;120.38;70.90;;;103.10;2227.20;;;;;;4997780;28;20039;-88
2023/01/03 01:57:11;;;;;;;151.00;92.30;;;103.20;2227.20;;;;;;4964057;28;20026;-87
2023/01/03 01:59:52;;;;;;;125.88;74.93;;;103.30;2227.20;;;;;;4997572;28;20027;-86
2023/01/03 02:02:19;;;;;;;123.93;71.30;;;103.30;2227.20;;;;;;4980167;28;20077;-85
2023/01/03 02:04:48;;;;;;;129.80;76.75;;;103.20;2227.20;;;;;;4976122;28;20054;-87
2023/01/03 02:07:15;;;;;;;131.35;74.15;;;103.20;2227.20;;;;;;4960706;28;20048;-86
2023/01/03 02:09:40;;;;;;;94.82;58.80;;;103.20;2227.20;;;;;;4960776;28;20045;-84
2023/01/03 02:16:21;;;;;;;99.13;61.03;;;103.00;2227.20;;;;;;4978024;28;20117;-87
2023/01/03 02:22:58;;;;;;;115.97;73.60;;;103.00;2227.20;;;;;;4978163;28;20026;-86
2023/01/03 02:36:17;;;;;;;86.15;49.45;;;103.10;2227.20;;;;;;4969506;28;20446;-86
2023/01/03 02:43:28;;;;;;;77.97;46.15;;;102.90;2227.20;;;;;;4861670;29;20589;-84
2023/01/03 02:49:58;;;;;;;72.88;44.53;;;;;;;;;;4861970;29;20540;-85
2023/01/03 02:56:12;;;;;;;72.93;40.75;;;;;;;;;;4861574;29;20061;-85
2023/01/03 03:38:19;;;;;;;74.93;43.72;;;;;;;;;;4882711;29;20075;-81
2023/01/03 03:47:20;;;;;;;63.83;40.30;;;;;;;;;;4887133;29;20032;-81
2023/01/03 03:53:30;;;;;;;88.13;50.90;;;;;;;;;;4832288;29;20128;-82
2023/01/03 04:05:37;;;;;;;96.22;51.20;;;;;;;;;;4850968;29;20029;-82
2023/01/03 04:21:05;;;;;;;65.47;39.47;;;;;;;;;;4907409;29;20535;-80
2023/01/03 04:27:25;;;;;;;87.97;48.90;;;;;;;;;;4916759;29;20502;-80
2023/01/03 04:34:05;;;;;;;115.63;59.95;;;102.60;2227.20;;;;;;4922382;29;20036;-83
2023/01/03 04:37:37;;;;;;;108.18;59.08;;;102.50;2227.20;;;;;;4897033;29;20055;-82
2023/01/03 04:51:24;;;;;;;74.35;41.00;;;;;;;;;;4902363;29;20484;-82
2023/01/03 04:54:08;;;;;;;70.25;41.10;;;;;;;;;;4901176;29;20037;-81
2023/01/03 05:00:27;;;;;;;73.30;42.42;;;;;;;;;;4899396;29;20100;-83
2023/01/03 05:03:23;;;;;;;55.35;33.42;;;;;;;;;;4897554;29;20029;-80
2023/01/03 05:06:46;;;;;;;56.42;35.92;;;;;;;;;;4889661;29;20473;-82
2023/01/03 05:09:34;;;;;;;54.28;34.38;;;;;;;;;;4864258;29;20037;-82
2023/01/03 05:13:04;;;;;;;57.70;31.42;;;;;;;;;;4881262;29;20454;-82
2023/01/03 05:19:16;;;;;;;64.53;41.58;;;;;;;;;;4853682;29;20116;-80
2023/01/03 05:31:18;;;;;;;68.15;43.30;;;;;;;;;;4801728;29;20070;-80
2023/01/03 05:34:29;;;;;;;71.80;41.63;;;;;;;;;;4807336;29;20032;-81
2023/01/03 05:37:49;;;;;;;80.25;49.53;;;;;;;;;;4810702;29;20512;-81
2023/01/03 05:44:38;;;;;;;70.38;40.15;;;;;;;;;;4811676;29;20046;-81
2023/01/03 05:47:47;;;;;;;81.25;42.78;;;;;;;;;;4801834;29;20047;-82
2023/01/03 05:51:08;;;;;;;63.47;38.05;;;;;;;;;;4796749;29;20577;-80
2023/01/03 05:53:39;;;;;;;60.80;35.65;;;;;;;;;;4817201;29;20061;-80
2023/01/03 05:56:33;;;;;;;54.35;32.80;;;;;;;;;;4818320;29;20030;-80
2023/01/03 05:59:25;;;;;;;55.72;32.53;;;;;;;;;;4853692;29;20033;-79
2023/01/03 06:02:15;;;;;;;50.15;30.23;;;;;;;;;;4845079;29;20030;-80
2023/01/03 06:04:49;;;;;;;78.75;45.33;;;;;;;;;;4861758;29;20133;-80
2023/01/03 06:07:44;;;;;;;122.90;72.30;;;;;;;;;;4848122;29;20121;-82
2023/01/03 06:10:52;;;;;;;97.85;56.78;;;;;;;;;;4848386;29;20034;-80
2023/01/03 06:20:00;;;;;;;60.47;39.28;;;;;;;;;;4886593;29;20142;-82
2023/01/03 06:23:10;;;;;;;61.05;36.15;;;;;;;;;;4866100;29;20034;-82
2023/01/03 06:33:15;;;;;;;60.63;36.63;;;77.40;2227.20;;;;;;4850859;29;20074;-81
2023/01/03 06:36:36;;;;;;;57.83;36.92;;;77.60;2227.20;;;;;;4777328;29;20039;-80
2023/01/03 06:42:54;;;;;;;85.65;57.25;;;;;;;;;;4795049;29;20041;-82
2023/01/03 06:55:26;;;;;;;81.95;54.25;;;102.40;2227.20;;;;;;4890970;29;20032;-83
2023/01/03 06:58:50;;;;;;;72.65;50.33;;;102.40;2227.20;;;;;;4886213;29;20037;-83
2023/01/03 07:05:32;;;;;;;63.13;44.20;;;102.60;2227.20;;;;;;4900859;29;20179;-83
2023/01/03 07:08:50;;;;;;;73.47;45.88;;;102.80;2227.20;;;;;;4884769;29;20037;-84
2023/01/03 07:15:16;;;;;;;123.18;76.55;;;102.60;2227.20;;;;;;4899836;29;20088;-82
2023/01/03 07:18:12;;;;;;;129.68;83.82;;;102.50;2227.20;;;;;;4883362;29;20045;-85
2023/01/03 07:21:33;;;;;;;122.72;76.28;;;102.50;2227.20;;;;;;4898861;29;20029;-83
2023/01/03 07:24:22;;;;;;;120.40;79.90;;;102.60;2227.20;;;;;;4899143;29;20040;-82
2023/01/03 07:27:19;;;;;;;126.18;79.05;;;102.80;2227.20;;;;;;4898689;29;20045;-81
2023/01/03 07:30:30;;;;;;;135.70;85.28;;;102.80;2227.20;;;;;;4898662;29;20037;-84
2023/01/03 07:34:21;;;;;;;153.77;90.90;;;102.90;2227.20;;;;;;4896078;29;20029;-84
2023/01/03 07:40:36;;;;;;;260.67;159.60;;;103.00;2227.20;;;;;;4898660;29;20067;-83
2023/01/03 07:50:01;;;;;;;210.25;138.10;;;103.10;2227.20;;;;;;4942288;29;20046;-84
2023/01/03 07:52:27;;;;;;;234.70;150.40;;;103.20;2227.20;;;;;;4956722;29;20031;-85
2023/01/03 07:54:54;;;;;;;222.82;144.32;;;103.30;2227.20;;;;;;4957188;29;20050;-84
2023/01/03 07:57:20;;;;;;;228.80;142.43;;;103.30;2227.20;;;;;;4925092;29;20023;-88
2023/01/03 07:59:46;;;;;;;198.20;133.77;;;103.30;2227.20;;;;;;4956516;29;20472;-83
2023/01/03 08:02:11;;;;;;;199.90;130.85;;;128.00;2252.80;;;;;;4954643;29;20027;-87
2023/01/03 08:04:37;;;;;;;203.68;131.00;;;128.10;2252.80;;;;;;4952229;29;20035;-87
2023/01/03 08:07:03;;;;;;;196.05;124.13;;;128.10;2252.80;;;;;;4952038;29;20491;-86
2023/01/03 08:14:57;;;;;;;191.85;133.23;;;128.30;2252.80;;;;;;4940716;29;20038;-84
2023/01/03 08:17:23;;;;;;;164.77;118.22;;;128.30;2252.80;;;;;;4935724;29;20027;-85
2023/01/03 08:19:49;;;;;;;128.85;92.68;;;128.30;2252.80;;;;;;4935258;29;20379;-85
2023/01/03 08:22:15;;;;;;;105.97;72.90;;;;;;;;;;4935985;29;20035;-84
2023/01/03 08:24:41;;;;;;;91.95;63.80;;;;;;;;;;4936203;29;20435;-86
2023/01/03 08:27:07;;;;;;;89.97;61.35;;;;;;;;;;4936293;29;20023;-87
2023/01/03 08:29:33;;;;;;;80.88;55.65;;;;;;;;;;4935967;29;20039;-86
2023/01/03 08:32:01;;;;;;;79.93;51.78;;;;;;;;;;4936113;29;20396;-87
2023/01/03 08:34:31;;;;;;;66.93;44.33;;;;;;;;;;4936101;29;20055;-88
2023/01/03 08:37:00;;;;;;;72.40;46.38;;;;;;;;;;4935052;29;20031;-88
2023/01/03 08:39:27;;;;;;;66.03;45.92;;;;;;;;;;4936141;29;20447;-85
2023/01/03 08:41:57;;;;;;;64.18;44.58;;;;;;;;;;4935568;29;20479;-87
2023/01/03 08:44:24;;;;;;;72.43;48.30;;;;;;;;;;4935909;29;20103;-86
2023/01/03 08:46:52;;;;;;;66.30;44.85;;;;;;;;;;4938774;29;20440;-85
2023/01/03 08:49:18;;;;;;;60.97;43.20;;;;;;;;;;4938697;29;20031;-87
2023/01/03 08:51:45;;;;;;;61.03;42.63;;;154.30;2252.80;;;;;;4938816;29;20031;-87
2023/01/03 08:54:11;;;;;;;64.95;42.42;;;154.10;2252.80;;;;;;4954806;29;20023;-88
2023/01/03 08:56:37;;;;;;;73.00;45.38;;;;;;;;;;4938468;29;20031;-85
2023/01/03 08:59:03;;;;;;;69.65;48.22;;;179.20;2252.80;;;;;;4938474;29;20057;-86
2023/01/03 09:01:29;;;;;;;62.13;44.38;;;;;;;;;;4938585;29;20051;-84
2023/01/03 09:03:55;;;;;;;72.82;50.70;;;;;;;;;;4938178;29;20419;-87
2023/01/03 09:06:21;;;;;;;80.65;51.78;;;;;;;;;;4938134;29;20027;-86
2023/01/03 09:08:47;;;;;;;76.70;53.70;;;;;;;;;;4938534;29;20039;-86
2023/01/03 09:11:13;;;;;;;80.38;55.20;;;;;;;;;;4938283;29;20028;-85
2023/01/03 09:13:40;;;;;;;74.78;54.83;;;;;;;;;;4938606;29;20023;-86
2023/01/03 09:16:06;;;;;;;79.90;55.17;;;;;;;;;;4938600;29;20029;-85
2023/01/03 09:18:33;;;;;;;88.28;60.65;;;;;;;;;;4938478;29;20019;-85
2023/01/03 09:20:59;;;;;;;91.43;64.93;;;;;;;;;;4938545;29;20051;-87
2023/01/03 09:23:25;;;;;;;94.07;66.60;;;;;;;;;;4938628;29;20025;-86
2023/01/03 09:25:51;;;;;;;101.18;69.07;;;;;;;;;;4938264;29;20038;-87
2023/01/03 09:28:18;;;;;;;96.65;69.10;;;;;;;;;;4938876;28;20097;-85
2023/01/03 09:30:44;;;;;;;100.53;68.50;;;;;;;;;;4957059;28;20129;-86
2023/01/03 09:33:10;;;;;;;125.55;81.65;;;;;;;;;;4957672;28;20516;-89
2023/01/03 09:35:39;;;;;;;219.55;126.93;;;;;;;;;;4957559;28;20022;-85
2023/01/03 09:38:05;;;;;;;188.18;108.90;;;;;;;;;;4957269;28;20019;-86
2023/01/03 09:40:32;;;;;;;114.32;73.15;;;;;;;;;;4957723;28;20027;-88
2023/01/03 09:43:13;;;;;;;102.78;66.60;;;;;;;;;;4957504;28;20027;-87
2023/01/03 09:45:42;;;;;;;78.30;54.22;;;;;;;;;;4953959;28;20050;-88
2023/01/03 09:48:09;;;;;;;75.80;52.53;;;;;;;;;;4955146;28;20423;-87
2023/01/03 09:50:37;;;;;;;76.38;55.15;;;;;;;;;;4957847;29;20035;-86
2023/01/03 10:04:33;;;;;;;62.70;44.25;;;;;;;;;;4978542;28;20509;-91
2023/01/03 10:07:02;;;;;;;57.03;41.40;;;;;;;;;;4976980;28;20022;-90
2023/01/03 10:09:31;;;;;;;56.33;41.30;;;;;;;;;;4977190;28;20066;-89
2023/01/03 10:12:00;;;;;;;50.67;36.55;;;;;;;;;;4977289;28;20023;-89
2023/01/03 10:14:26;;;;;;;52.95;36.17;;;;;;;;;;4977149;28;20471;-91
2023/01/03 10:16:55;;;;;;;50.72;36.03;;;;;;;;;;4977305;28;20035;-89
2023/01/03 10:19:24;;;;;;;49.33;34.88;;;;;;;;;;4977494;28;20038;-90
2023/01/03 10:21:50;;;;;;;45.10;32.17;;;;;;;;;;4977155;28;20030;-90
2023/01/03 10:24:24;;;;;;;41.83;29.30;;;;;;;;;;4977164;28;20087;-91
2023/01/03 10:27:27;;;;;;;41.22;30.13;;;256.40;2252.80;;;;;;4977044;28;20030;-90
2023/01/03 10:30:33;;;;;;;46.15;33.25;;;;;;;;;;4959738;28;20051;-91
2023/01/03 10:33:32;;;;;;;37.10;29.10;;;256.70;2252.80;;;;;;4938522;29;20035;-91
2023/01/03 10:36:05;;;;;;;36.97;29.40;;;256.60;2252.80;;;;;;4936311;29;20035;-91
2023/01/03 10:38:31;;;;;;;42.58;28.85;;;;;;;;;;4959825;28;20400;-90
2023/01/03 10:40:59;;;;;;;76.22;55.50;;;256.80;2252.80;;;;;;4958268;28;20027;-90
2023/01/03 10:43:40;;;;;;;52.92;37.88;;;256.50;2252.80;;;;;;4957093;29;20066;-90
2023/01/03 10:46:14;;;;;;;44.05;30.92;;;256.60;2252.80;;;;;;4975682;28;20089;-90
2023/01/03 10:48:43;;;;;;;43.25;30.95;;;256.50;2252.80;;;;;;4960293;28;20495;-90
2023/01/03 10:51:30;;;;;;;61.03;44.72;;;256.60;2252.80;;;;;;4960603;28;20065;-91
2023/01/03 10:53:59;;;;;;;46.85;34.28;;;256.80;2252.80;;;;;;4960691;28;20027;-90
2023/01/03 10:56:28;;;;;;;38.35;29.33;;;256.80;2252.80;;;;;;4960270;28;20077;-88
2023/01/03 10:59:30;;;;;;;38.05;29.70;;;256.80;2252.80;;;;;;4960491;28;20038;-90
2023/01/03 11:02:01;;;;;;;39.15;26.30;;;;;;;;;;4936926;29;20038;-90
2023/01/03 11:04:31;;;;;;;32.53;26.23;;;;;;;;;;4969948;28;20062;-91
2023/01/03 11:07:15;;;;;;;57.78;31.52;;;282.30;2278.40;;;;;;4966818;28;20033;-90
2023/01/03 11:09:54;;;;;;;48.50;35.03;;;;;;;;;;4990844;28;20062;-91
2023/01/03 11:12:34;;;;;;;51.13;35.65;;;;;;;;;;4959906;28;20467;-89
2023/01/03 11:15:00;;;;;;;77.00;48.70;;;;;;;;;;4977330;28;20019;-90
2023/01/03 11:17:28;;;;;;;81.60;51.17;;;;;;;;;;4960084;28;20027;-86
2023/01/03 11:19:55;;;;;;;66.30;43.53;;;;;;;;;;4959566;28;20065;-87
2023/01/03 11:22:33;;;;;;;56.65;40.67;;;;;;;;;;4959877;28;20110;-87
2023/01/03 11:25:15;;;;;;;50.47;37.35;;;;;;;;;;4959913;28;20037;-84
2023/01/03 11:28:04;;;;;;;51.63;35.38;;;;;;;;;;4960116;28;20026;-86
2023/01/03 11:30:33;;;;;;;56.42;38.30;;;;;;;;;;4976689;28;20039;-88
2023/01/03 11:33:18;;;;;;;100.05;71.05;;;;;;;;;;4959825;28;20026;-87
2023/01/03 11:35:44;;;;;;;71.22;51.20;;;;;;;;;;4959391;28;20093;-88
2023/01/03 11:38:25;;;;;;;165.20;114.13;;;;;;;;;;4959207;28;20065;-88
2023/01/03 11:40:52;;;;;;;162.65;108.07;;;;;;;;;;4959242;28;20022;-89
2023/01/03 11:43:45;;;;;;;91.47;64.22;;;;;;;;;;4959994;28;20102;-87
2023/01/03 11:46:20;;;;;;;50.67;38.05;;;;;;;;;;4955936;28;20074;-88
2023/01/03 11:48:46;;;;;;;57.10;40.50;;;;;;;;;;4969368;28;20124;-85
2023/01/03 11:51:15;;;;;;;55.47;40.70;;;;;;;;;;4978159;28;20058;-84
2023/01/03 11:54:01;;;;;;;52.03;37.55;;;;;;;;;;4978593;28;20437;-83
2023/01/03 11:56:35;;;;;;;105.57;74.53;;;;;;;;;;4978171;28;20149;-84
2023/01/03 11:59:25;;;;;;;114.80;76.43;;;358.90;2329.60;;;;;;4978360;28;20080;-84
2023/01/03 12:02:10;;;;;;;117.68;78.63;;;;;;;;;;4978260;28;20125;-83
2023/01/03 12:04:49;;;;;;;54.78;38.58;;;359.00;2329.60;;;;;;4978109;28;20033;-82
2023/01/03 12:07:18;;;;;;;57.95;43.17;;;;;;;;;;4967911;28;20031;-83
2023/01/03 12:09:44;;;;;;;51.22;42.78;;;;;;;;;;4958835;28;20038;-83
2023/01/03 12:12:20;;;;;;;35.80;29.45;;;;;;;;;;4958516;28;20023;-83
2023/01/03 12:14:51;;;;;;;31.73;22.35;;;384.10;2329.60;;;;;;4958723;28;20027;-82
2023/01/03 12:17:39;;;;;;;65.40;46.40;;;384.40;2329.60;;;;;;4986314;28;20473;-82
2023/01/03 12:20:18;;;;;;;41.63;33.60;;;384.30;2329.60;;;;;;4972662;28;20042;-82
2023/01/03 12:22:54;;;;;;;32.15;23.98;;;;;;;;;;4961694;28;20121;-81
2023/01/03 12:25:24;;;;;;;42.03;31.65;;;;;;;;;;4978529;28;20023;-83
2023/01/03 12:27:57;;;;;;;35.45;25.95;;;;;;;;;;4974886;28;20026;-81
2023/01/03 12:30:32;;;;;;;37.95;28.50;;;;;;;;;;4957652;28;20462;-82
2023/01/03 12:33:21;;;;;;;37.05;28.05;;;;;;;;;;4970657;28;20025;-82
2023/01/03 12:35:50;;;;;;;45.55;27.48;;;;;;;;;;4975996;28;20035;-83
2023/01/03 12:38:20;;;;;;;43.78;29.30;;;;;;;;;;4978258;28;20018;-83
2023/01/03 12:41:00;;;;;;;36.38;25.33;;;;;;;;;;4966031;28;20052;-84
2023/01/03 12:43:46;;;;;;;42.00;27.98;;;;;;;;;;4993052;28;20093;-81
2023/01/03 12:46:38;;;;;;;56.15;38.45;;;;;;;;;;4971720;28;20055;-82
2023/01/03 12:49:04;;;;;;;46.13;34.20;;;;;;;;;;4954428;28;20039;-81
2023/01/03 12:51:30;;;;;;;46.70;33.00;;;;;;;;;;4957557;28;20026;-80
2023/01/03 12:54:13;;;;;;;51.08;35.60;;;;;;;;;;4957720;28;20538;-82
2023/01/03 12:56:39;;;;;;;49.17;31.95;;;;;;;;;;4984609;28;20028;-82
2023/01/03 12:59:24;;;;;;;75.85;51.33;;;;;;;;;;4982415;28;20110;-81
2023/01/03 13:01:59;;;;;;;47.67;35.28;;;;;;;;;;4983613;28;20094;-83
2023/01/03 13:04:28;;;;;;;46.97;31.38;;;;;;;;;;4977223;28;20019;-84
2023/01/03 13:07:03;;;;;;;42.38;29.45;;;;;;;;;;4977099;28;20113;-81
2023/01/03 13:09:31;;;;;;;43.25;31.70;;;;;;;;;;4976713;28;20049;-82
2023/01/03 13:12:08;;;;;;;43.88;29.33;;;;;;;;;;4976997;28;20426;-84
2023/01/03 13:15:09;;;;;;;76.95;34.55;;;;;;;;;;4976861;28;20022;-80
2023/01/03 13:17:43;;;;;;;74.70;35.28;;;;;;;;;;4934089;29;20039;-83
2023/01/03 13:20:12;;;;;;;51.20;31.25;;;;;;;;;;4970637;28;20394;-80
2023/01/03 13:22:54;;;;;;;58.00;35.72;;;;;;;;;;4966183;28;20010;-81
2023/01/03 13:25:40;;;;;;;51.33;36.00;;;;;;;;;;4987623;28;20518;-82
2023/01/03 13:28:23;;;;;;;43.67;28.63;;;;;;;;;;4962443;28;20026;-81
2023/01/03 13:30:49;;;;;;;42.08;29.15;;;;;;;;;;4960971;28;20027;-81
2023/01/03 13:33:17;;;;;;;38.33;28.65;;;;;;;;;;4961201;28;20488;-83
2023/01/03 13:35:43;;;;;;;39.08;27.65;;;;;;;;;;4960754;28;20019;-82
2023/01/03 13:38:16;;;;;;;45.88;30.52;;;;;;;;;;4961345;28;20451;-81
2023/01/03 13:40:45;;;;;;;41.20;31.38;;;;;;;;;;4978518;28;20026;-82
2023/01/03 13:43:14;;;;;;;54.30;36.28;;;;;;;;;;4962946;28;20018;-83
2023/01/03 13:45:43;;;;;;;38.80;26.25;;;;;;;;;;4977923;28;20376;-81
2023/01/03 13:48:12;;;;;;;47.67;33.70;;;;;;;;;;4960874;28;20522;-81
2023/01/03 13:50:38;;;;;;;40.03;30.88;;;;;;;;;;4960186;28;20092;-81
2023/01/03 13:53:24;;;;;;;41.55;29.27;;;;;;;;;;4978027;28;20037;-84
2023/01/03 13:55:57;;;;;;;40.92;29.08;;;;;;;;;;4960560;28;20359;-84
2023/01/03 13:58:26;;;;;;;45.13;32.75;;;;;;;;;;4960802;28;20034;-83
2023/01/03 14:00:57;;;;;;;51.90;35.08;;;;;;;;;;4960843;28;20493;-84
2023/01/03 14:03:23;;;;;;;59.90;41.47;;;;;;;;;;4978217;28;20030;-83
2023/01/03 14:06:05;;;;;;;117.20;60.88;;;;;;;;;;4960800;28;20029;-83
2023/01/03 14:08:49;;;;;;;75.55;47.55;;;;;;;;;;4978227;28;20023;-85
2023/01/03 14:11:34;;;;;;;64.18;38.00;;;;;;;;;;4960267;28;20023;-83
2023/01/03 14:14:06;;;;;;;51.13;37.58;;;;;;;;;;4960628;28;20026;-84
2023/01/03 14:16:49;;;;;;;76.13;48.88;;;;;;;;;;4960982;28;20027;-84
2023/01/03 14:19:15;;;;;;;99.20;64.97;;;;;;;;;;4960396;28;20026;-83
2023/01/03 14:21:41;;;;;;;116.38;75.60;;;;;;;;;;4960562;28;20459;-83
2023/01/03 14:24:13;;;;;;;115.40;75.40;;;;;;;;;;4960462;28;20035;-83
2023/01/03 14:26:39;;;;;;;120.03;76.40;;;;;;;;;;4960095;28;20023;-82
2023/01/03 14:29:07;;;;;;;95.18;67.57;;;;;;;;;;4960206;28;20041;-82
2023/01/03 14:31:34;;;;;;;92.13;62.17;;;;;;;;;;4977602;28;20029;-84
2023/01/03 14:34:02;;;;;;;100.18;63.38;;;;;;;;;;4959768;28;20031;-85
2023/01/03 14:36:28;;;;;;;105.70;68.22;;;;;;;;;;4959184;28;20122;-83
2023/01/03 14:38:56;;;;;;;118.55;78.90;;;;;;;;;;4959928;28;20090;-84
2023/01/03 14:41:30;;;;;;;134.10;85.60;;;;;;;;;;4960091;28;20033;-84
2023/01/03 14:44:00;;;;;;;123.32;82.78;;;;;;;;;;4959940;28;20116;-82
2023/01/03 14:46:27;;;;;;;114.22;76.22;;;;;;;;;;4959334;28;20106;-82
2023/01/03 14:48:55;;;;;;;117.20;77.30;;;;;;;;;;4959539;28;20035;-82
2023/01/03 14:51:21;;;;;;;104.68;68.63;;;;;;;;;;4959369;28;20019;-82
2023/01/03 14:53:47;;;;;;;117.63;73.50;;;;;;;;;;4959464;28;20058;-82
2023/01/03 14:56:13;;;;;;;97.60;62.50;;;;;;;;;;4959401;28;20049;-83
2023/01/03 14:58:40;;;;;;;83.70;57.13;;;;;;;;;;4977047;28;20027;-82
2023/01/03 15:01:08;;;;;;;86.28;60.70;;;;;;;;;;4959553;28;20034;-79
2023/01/03 15:03:35;;;;;;;81.43;54.88;;;;;;;;;;4976532;28;20019;-82
2023/01/03 15:06:15;;;;;;;73.53;50.95;;;;;;;;;;4959012;28;20140;-85
2023/01/03 15:08:43;;;;;;;79.82;53.90;;;;;;;;;;4959316;28;20031;-84
2023/01/03 15:11:09;;;;;;;93.72;60.53;;;;;;;;;;4976919;28;20027;-84
2023/01/03 15:13:55;;;;;;;90.95;57.92;;;;;;;;;;4976724;28;20031;-81
2023/01/03 15:16:32;;;;;;;94.40;59.97;;;;;;;;;;4959516;28;20019;-82
2023/01/03 15:19:04;;;;;;;98.03;65.07;;;;;;;;;;4976956;28;20034;-87
2023/01/03 15:21:30;;;;;;;89.47;62.67;;;;;;;;;;4959437;28;20023;-88
2023/01/03 15:23:56;;;;;;;84.82;60.08;;;;;;;;;;4959873;28;20261;-86
2023/01/03 15:26:44;;;;;;;98.07;68.32;;;;;;;;;;4959980;28;20459;-87
2023/01/03 15:29:14;;;;;;;88.68;61.72;;;;;;;;;;4966098;28;20034;-85
2023/01/03 15:31:49;;;;;;;104.15;67.60;;;;;;;;;;4973111;28;20041;-84
2023/01/03 15:34:18;;;;;;;114.28;71.72;;;;;;;;;;4976341;28;20034;-85
2023/01/03 15:36:51;;;;;;;134.63;84.47;;;;;;;;;;4965493;28;20026;-85
2023/01/03 15:39:21;;;;;;;94.40;60.38;;;;;;;;;;4975717;28;20471;-88
2023/01/03 15:44:32;;;;;;;85.60;57.38;;;;;;;;;;4980517;28;20049;-88
2023/01/03 15:47:01;;;;;;;88.15;62.22;;;;;;;;;;4958445;28;20046;-88
2023/01/03 15:49:28;;;;;;;100.70;66.93;;;;;;;;;;4958358;28;20070;-88
2023/01/03 15:51:54;;;;;;;174.70;118.07;;;;;;;;;;4959511;28;20027;-92
2023/01/03 15:54:20;;;;;;;205.15;142.02;;;;;;;;;;4959404;28;20034;-89
2023/01/03 15:57:03;;;;;;;226.07;152.13;;;;;;;;;;4959382;28;20054;-89
2023/01/03 15:59:29;;;;;;;;;;;;;;;;;;4959366;28;20383;-90
2023/01/03 16:01:55;;;;;;;294.20;187.40;;;;;;;;;;4959048;28;19912;-88
2023/01/03 16:04:21;;;;;;;264.55;176.43;;;;;;;;;;4958712;28;20054;-88
2023/01/03 16:06:48;;;;;;;277.55;187.00;;;;;;;;;;4958934;28;20027;-87
2023/01/03 16:09:14;;;;;;;272.50;183.63;;;;;;;;;;4958722;28;20561;-87
2023/01/03 16:11:40;;;;;;;277.08;181.70;;;;;;;;;;4958607;28;20037;-89
2023/01/03 16:14:10;;;;;;;287.15;196.50;;;;;;;;;;4958584;28;20029;-87
2023/01/03 16:16:40;;;;;;;281.45;190.98;;;256.10;2252.80;;;;;;4975784;28;20105;-87
2023/01/03 16:19:14;;;;;;;262.38;180.77;;;231.30;2252.80;;;;;;4974673;28;20035;-90
2023/01/03 16:21:40;;;;;;;286.95;198.52;;;231.20;2252.80;;;;;;4958939;28;20023;-88
2023/01/03 16:24:05;;;;;;;344.58;229.05;;;231.00;2252.80;;;;;;4957963;28;20037;-88
2023/01/03 16:26:31;;;;;;;341.27;229.25;;;231.00;2252.80;;;;;;4957796;28;20033;-89
2023/01/03 16:28:58;;;;;;;350.63;241.10;;;230.90;2252.80;;;;;;4958696;28;20034;-88
2023/01/03 16:31:31;;;;;;;362.25;241.25;;;230.90;2252.80;;;;;;4958759;28;20525;-88
2023/01/03 16:33:57;;;;;;;368.95;242.75;;;230.90;2252.80;;;;;;4958581;28;20038;-89
2023/01/03 16:36:38;;;;;;;340.95;228.38;;;230.90;2252.80;;;;;;4958874;28;20023;-90
2023/01/03 16:39:17;;;;;;;414.05;287.92;;;230.90;2252.80;;;;;;4958406;28;20030;-90
2023/01/03 16:42:11;;;;;;;384.88;266.23;;;230.80;2252.80;;;;;;4958889;28;20049;-89
2023/01/03 16:44:31;;;;;;;387.45;257.40;;;230.70;2252.80;;;;;;4975726;28;20027;-89
2023/01/03 16:46:57;;;;;;;403.60;269.77;;;230.70;2252.80;;;;;;4958671;28;20085;-89
2023/01/03 16:49:23;;;;;;;433.27;282.92;;;230.60;2252.80;;;;;;4957977;28;20046;-89
2023/01/03 16:51:50;;;;;;;464.33;304.85;;;230.60;2252.80;;;;;;4958263;28;20027;-89
2023/01/03 16:54:17;;;;;;;450.63;296.75;;;230.60;2252.80;;;;;;4958396;28;20034;-88
2023/01/03 16:56:44;;;;;;;429.40;279.70;;;230.60;2252.80;;;;;;4958296;28;20027;-90
2023/01/03 16:59:20;;;;;;;392.98;256.55;;;230.60;2252.80;;;;;;4958118;28;20462;-90
2023/01/03 17:01:48;;;;;;;364.77;242.95;;;230.60;2252.80;;;;;;4958497;28;20117;-86
2023/01/03 17:04:14;;;;;;;357.33;237.32;;;230.60;2252.80;;;;;;4958069;28;20023;-91
2023/01/03 17:06:40;;;;;;;359.38;238.20;;;230.60;2252.80;;;;;;4957989;28;20031;-91
2023/01/03 17:09:37;;;;;;;378.98;253.75;;;230.60;2252.80;;;;;;4958211;28;20045;-92
2023/01/03 17:12:04;;;;;;;412.58;271.05;;;230.50;2252.80;;;;;;4957522;28;20041;-89
2023/01/03 17:14:34;;;;;;;411.25;271.95;;;230.50;2252.80;;;;;;4958162;28;20114;-86
2023/01/03 17:17:00;;;;;;;380.80;262.45;;;230.40;2252.80;;;;;;4957980;28;20031;-90
2023/01/03 17:19:27;;;;;;;378.30;255.88;;;205.70;2252.80;;;;;;4958005;28;20117;-89
2023/01/03 17:21:54;;;;;;;447.55;307.65;;;205.60;2252.80;;;;;;4957475;28;20050;-86
2023/01/03 17:24:22;;;;;;;446.73;301.60;;;205.60;2252.80;;;;;;4957256;28;20387;-87
2023/01/03 17:26:58;;;;;;;439.75;293.15;;;205.50;2252.80;;;;;;4957441;28;20042;-88
2023/01/03 17:29:25;;;;;;;402.17;272.20;;;205.50;2252.80;;;;;;4958180;28;20411;-88
2023/01/03 17:31:51;;;;;;;429.23;282.13;;;205.30;2252.80;;;;;;4957816;28;20038;-88
2023/01/03 17:34:21;;;;;;;421.42;278.70;;;205.50;2252.80;;;;;;4958155;28;20379;-90
2023/01/03 17:36:47;;;;;;;440.80;295.90;;;205.50;2252.80;;;;;;4958133;28;20050;-88